sensor_id;sensor_type;location;lat;lon;timestamp;pressure;altitude;pressure_sealevel;temperature;humidity
25526;BME280;13424;48.424;11.258;2024-03-23T00:56:06;94999.38;;;14.59;55.40
25526;BME280;13424;48.424;11.258;2024-03-23T00:58:32;94990.09;;;14.41;55.71
25526;BME280;13424;48.424;11.258;2024-03-23T01:00:58;94986.84;;;14.49;55.70
25526;BME280;13424;48.424;11.258;2024-03-23T01:03:24;94984.78;;;14.31;56.41
25526;BME280;13424;48.424;11.258;2024-03-23T01:05:49;94980.53;;;14.24;57.31
25526;BME280;13424;48.424;11.258;2024-03-23T01:08:16;94978.34;;;14.27;56.55
25526;BME280;13424;48.424;11.258;2024-03-23T01:10:42;94970.81;;;14.29;56.43
25526;BME280;13424;48.424;11.258;2024-03-23T01:13:08;94964.66;;;14.28;56.37
25526;BME280;13424;48.424;11.258;2024-03-23T01:15:34;94961.97;;;14.33;56.38
25526;BME280;13424;48.424;11.258;2024-03-23T01:18:00;94959.25;;;14.38;56.18
25526;BME280;13424;48.424;11.258;2024-03-23T01:20:26;94972.63;;;13.99;57.60
25526;BME280;13424;48.424;11.258;2024-03-23T01:22:53;94972.66;;;13.89;57.44
25526;BME280;13424;48.424;11.258;2024-03-23T01:25:19;94964.84;;;13.97;57.60
25526;BME280;13424;48.424;11.258;2024-03-23T01:27:45;94954.31;;;14.11;56.75
25526;BME280;13424;48.424;11.258;2024-03-23T01:30:11;94963.38;;;14.20;56.66
25526;BME280;13424;48.424;11.258;2024-03-23T01:32:40;94946.84;;;14.03;56.63
25526;BME280;13424;48.424;11.258;2024-03-23T01:35:06;94949.94;;;14.25;56.36
25526;BME280;13424;48.424;11.258;2024-03-23T01:37:33;94945.69;;;14.19;56.66
25526;BME280;13424;48.424;11.258;2024-03-23T01:40:00;94947.31;;;14.15;57.04
25526;BME280;13424;48.424;11.258;2024-03-23T01:42:26;94942.25;;;13.59;58.53
25526;BME280;13424;48.424;11.258;2024-03-23T01:44:52;94950.75;;;13.66;58.26
25526;BME280;13424;48.424;11.258;2024-03-23T01:47:18;94945.59;;;13.90;58.17
25526;BME280;13424;48.424;11.258;2024-03-23T01:49:44;94949.16;;;13.71;58.26
25526;BME280;13424;48.424;11.258;2024-03-23T01:52:10;94938.19;;;13.62;58.57
25526;BME280;13424;48.424;11.258;2024-03-23T01:54:37;94928.78;;;13.69;58.47
25526;BME280;13424;48.424;11.258;2024-03-23T01:57:04;94932.91;;;13.41;59.43
25526;BME280;13424;48.424;11.258;2024-03-23T01:59:30;94924.88;;;13.41;59.49
25526;BME280;13424;48.424;11.258;2024-03-23T02:01:56;94926.19;;;13.49;59.42
25526;BME280;13424;48.424;11.258;2024-03-23T02:04:25;94924.00;;;13.61;59.50
25526;BME280;13424;48.424;11.258;2024-03-23T02:06:51;94916.03;;;13.46;59.75
25526;BME280;13424;48.424;11.258;2024-03-23T02:09:17;94910.88;;;13.60;59.12
25526;BME280;13424;48.424;11.258;2024-03-23T02:11:43;94903.50;;;13.31;59.85
25526;BME280;13424;48.424;11.258;2024-03-23T02:14:09;94901.59;;;13.37;59.90
25526;BME280;13424;48.424;11.258;2024-03-23T02:16:35;94895.41;;;13.47;60.04
25526;BME280;13424;48.424;11.258;2024-03-23T02:19:01;94891.56;;;13.68;59.58
25526;BME280;13424;48.424;11.258;2024-03-23T02:21:27;94892.38;;;13.58;59.50
25526;BME280;13424;48.424;11.258;2024-03-23T02:23:54;94887.09;;;13.48;59.79
25526;BME280;13424;48.424;11.258;2024-03-23T02:26:20;94878.88;;;13.84;59.57
25526;BME280;13424;48.424;11.258;2024-03-23T02:28:46;94877.09;;;13.69;60.02
25526;BME280;13424;48.424;11.258;2024-03-23T02:31:13;94878.81;;;13.94;59.60
25526;BME280;13424;48.424;11.258;2024-03-23T02:33:39;94875.66;;;13.82;59.53
25526;BME280;13424;48.424;11.258;2024-03-23T02:36:05;94870.25;;;13.92;59.50
25526;BME280;13424;48.424;11.258;2024-03-23T02:38:31;94863.88;;;13.83;59.22
25526;BME280;13424;48.424;11.258;2024-03-23T02:41:04;94865.69;;;13.92;59.27
25526;BME280;13424;48.424;11.258;2024-03-23T02:43:31;94864.94;;;13.82;59.73
25526;BME280;13424;48.424;11.258;2024-03-23T02:45:57;94869.06;;;14.08;59.44
25526;BME280;13424;48.424;11.258;2024-03-23T02:48:23;94852.06;;;13.84;59.55
25526;BME280;13424;48.424;11.258;2024-03-23T02:50:50;94856.56;;;13.93;59.58
25526;BME280;13424;48.424;11.258;2024-03-23T02:53:16;94849.84;;;13.96;59.28
25526;BME280;13424;48.424;11.258;2024-03-23T02:55:43;94856.31;;;13.90;59.73
25526;BME280;13424;48.424;11.258;2024-03-23T02:58:09;94854.59;;;13.65;60.14
25526;BME280;13424;48.424;11.258;2024-03-23T03:00:35;94853.47;;;13.71;60.26
25526;BME280;13424;48.424;11.258;2024-03-23T03:03:01;94854.25;;;13.77;59.78
25526;BME280;13424;48.424;11.258;2024-03-23T03:05:27;94844.13;;;13.68;60.49
25526;BME280;13424;48.424;11.258;2024-03-23T03:07:53;94843.56;;;13.72;60.69
25526;BME280;13424;48.424;11.258;2024-03-23T03:10:18;94843.19;;;13.44;61.16
25526;BME280;13424;48.424;11.258;2024-03-23T03:12:45;94836.09;;;13.63;61.14
25526;BME280;13424;48.424;11.258;2024-03-23T03:15:13;94839.31;;;13.65;60.80
25526;BME280;13424;48.424;11.258;2024-03-23T03:17:39;94826.19;;;13.64;60.79
25526;BME280;13424;48.424;11.258;2024-03-23T03:20:05;94826.31;;;13.88;60.33
25526;BME280;13424;48.424;11.258;2024-03-23T03:22:32;94831.16;;;13.81;60.56
25526;BME280;13424;48.424;11.258;2024-03-23T03:24:58;94819.44;;;13.77;60.48
25526;BME280;13424;48.424;11.258;2024-03-23T03:27:25;94809.41;;;13.48;61.37
25526;BME280;13424;48.424;11.258;2024-03-23T03:29:51;94801.66;;;13.86;60.43
25526;BME280;13424;48.424;11.258;2024-03-23T03:32:17;94797.75;;;14.07;59.94
25526;BME280;13424;48.424;11.258;2024-03-23T03:34:43;94797.41;;;13.80;60.37
25526;BME280;13424;48.424;11.258;2024-03-23T03:37:09;94801.09;;;13.89;60.64
25526;BME280;13424;48.424;11.258;2024-03-23T03:39:35;94800.72;;;13.66;61.29
25526;BME280;13424;48.424;11.258;2024-03-23T03:42:02;94797.09;;;13.86;60.94
25526;BME280;13424;48.424;11.258;2024-03-23T03:44:32;94786.06;;;13.93;60.57
25526;BME280;13424;48.424;11.258;2024-03-23T03:46:58;94783.34;;;13.98;60.51
25526;BME280;13424;48.424;11.258;2024-03-23T03:49:24;94773.97;;;13.95;61.24
25526;BME280;13424;48.424;11.258;2024-03-23T03:51:50;94774.72;;;14.06;60.43
25526;BME280;13424;48.424;11.258;2024-03-23T03:54:16;94766.63;;;14.11;60.37
25526;BME280;13424;48.424;11.258;2024-03-23T03:56:42;94772.97;;;14.20;60.91
25526;BME280;13424;48.424;11.258;2024-03-23T03:59:08;94766.84;;;14.44;60.45
25526;BME280;13424;48.424;11.258;2024-03-23T04:01:35;94763.22;;;14.30;60.83
25526;BME280;13424;48.424;11.258;2024-03-23T04:04:01;94751.50;;;14.20;60.61
25526;BME280;13424;48.424;11.258;2024-03-23T04:06:27;94754.00;;;14.41;60.30
25526;BME280;13424;48.424;11.258;2024-03-23T04:08:53;94750.91;;;14.29;60.30
25526;BME280;13424;48.424;11.258;2024-03-23T04:11:19;94755.53;;;14.23;60.81
25526;BME280;13424;48.424;11.258;2024-03-23T04:13:45;94754.97;;;14.55;60.01
25526;BME280;13424;48.424;11.258;2024-03-23T04:16:11;94752.84;;;14.52;59.89
25526;BME280;13424;48.424;11.258;2024-03-23T04:18:37;94739.56;;;14.37;60.02
25526;BME280;13424;48.424;11.258;2024-03-23T04:21:04;94740.22;;;14.76;59.08
25526;BME280;13424;48.424;11.258;2024-03-23T04:23:30;94728.69;;;14.52;59.05
25526;BME280;13424;48.424;11.258;2024-03-23T04:25:56;94722.16;;;15.06;58.50
25526;BME280;13424;48.424;11.258;2024-03-23T04:28:21;94721.22;;;15.16;58.62
25526;BME280;13424;48.424;11.258;2024-03-23T04:30:48;94718.53;;;14.97;58.06
25526;BME280;13424;48.424;11.258;2024-03-23T04:33:14;94722.66;;;14.89;58.38
25526;BME280;13424;48.424;11.258;2024-03-23T04:35:39;94718.47;;;15.02;58.67
25526;BME280;13424;48.424;11.258;2024-03-23T04:38:05;94721.41;;;14.82;58.91
25526;BME280;13424;48.424;11.258;2024-03-23T04:40:32;94721.56;;;14.66;59.00
25526;BME280;13424;48.424;11.258;2024-03-23T04:42:58;94726.88;;;14.71;59.46
25526;BME280;13424;48.424;11.258;2024-03-23T04:45:24;94718.09;;;14.66;59.15
25526;BME280;13424;48.424;11.258;2024-03-23T04:47:50;94715.03;;;14.77;59.11
25526;BME280;13424;48.424;11.258;2024-03-23T04:50:16;94711.22;;;15.02;58.61
25526;BME280;13424;48.424;11.258;2024-03-23T04:52:42;94704.00;;;14.98;58.36
25526;BME280;13424;48.424;11.258;2024-03-23T04:55:09;94701.91;;;14.95;58.17
25526;BME280;13424;48.424;11.258;2024-03-23T04:57:35;94699.13;;;15.00;58.49
25526;BME280;13424;48.424;11.258;2024-03-23T05:00:01;94701.75;;;14.86;58.63
25526;BME280;13424;48.424;11.258;2024-03-23T05:02:28;94705.59;;;14.99;58.97
25526;BME280;13424;48.424;11.258;2024-03-23T05:04:54;94707.97;;;14.82;58.77
25526;BME280;13424;48.424;11.258;2024-03-23T05:07:20;94710.06;;;14.85;58.90
25526;BME280;13424;48.424;11.258;2024-03-23T05:09:46;94704.69;;;14.85;59.48
25526;BME280;13424;48.424;11.258;2024-03-23T05:12:14;94697.34;;;15.14;58.51
25526;BME280;13424;48.424;11.258;2024-03-23T05:14:40;94692.25;;;14.94;59.37
25526;BME280;13424;48.424;11.258;2024-03-23T05:17:07;94686.09;;;15.12;58.75
25526;BME280;13424;48.424;11.258;2024-03-23T05:19:33;94690.19;;;15.10;58.26
25526;BME280;13424;48.424;11.258;2024-03-23T05:21:59;94698.69;;;14.50;59.36
25526;BME280;13424;48.424;11.258;2024-03-23T05:24:25;94692.06;;;14.66;59.33
25526;BME280;13424;48.424;11.258;2024-03-23T05:26:51;94684.50;;;14.68;59.21
25526;BME280;13424;48.424;11.258;2024-03-23T05:29:17;94686.28;;;14.30;59.69
25526;BME280;13424;48.424;11.258;2024-03-23T05:31:43;94666.28;;;14.46;59.65
25526;BME280;13424;48.424;11.258;2024-03-23T05:34:09;94675.13;;;14.42;59.98
25526;BME280;13424;48.424;11.258;2024-03-23T05:36:35;94665.88;;;14.77;59.50
25526;BME280;13424;48.424;11.258;2024-03-23T05:39:02;94667.91;;;14.66;59.93
25526;BME280;13424;48.424;11.258;2024-03-23T05:41:28;94661.13;;;14.50;59.90
25526;BME280;13424;48.424;11.258;2024-03-23T05:43:54;94646.56;;;14.56;59.54
25526;BME280;13424;48.424;11.258;2024-03-23T05:46:20;94633.91;;;14.80;59.37
25526;BME280;13424;48.424;11.258;2024-03-23T05:48:46;94627.19;;;15.02;57.87
25526;BME280;13424;48.424;11.258;2024-03-23T05:51:12;94621.94;;;14.92;58.39
25526;BME280;13424;48.424;11.258;2024-03-23T05:53:38;94624.41;;;15.07;58.11
25526;BME280;13424;48.424;11.258;2024-03-23T05:56:05;94624.78;;;15.19;58.27
25526;BME280;13424;48.424;11.258;2024-03-23T05:58:31;94622.25;;;15.09;58.63
25526;BME280;13424;48.424;11.258;2024-03-23T06:01:00;94616.06;;;14.90;58.99
25526;BME280;13424;48.424;11.258;2024-03-23T06:03:28;94611.63;;;14.99;58.56
25526;BME280;13424;48.424;11.258;2024-03-23T06:05:54;94606.53;;;15.35;58.27
25526;BME280;13424;48.424;11.258;2024-03-23T06:08:22;94599.38;;;15.63;57.93
25526;BME280;13424;48.424;11.258;2024-03-23T06:10:48;94598.09;;;15.42;58.47
25526;BME280;13424;48.424;11.258;2024-03-23T06:13:14;94586.75;;;15.45;58.29
25526;BME280;13424;48.424;11.258;2024-03-23T06:15:40;94586.16;;;15.67;57.60
25526;BME280;13424;48.424;11.258;2024-03-23T06:18:06;94584.91;;;15.59;58.36
25526;BME280;13424;48.424;11.258;2024-03-23T06:20:34;94580.41;;;15.73;57.95
25526;BME280;13424;48.424;11.258;2024-03-23T06:23:03;94581.78;;;15.71;58.21
25526;BME280;13424;48.424;11.258;2024-03-23T06:25:30;94585.22;;;16.04;58.38
25526;BME280;13424;48.424;11.258;2024-03-23T06:27:56;94561.28;;;16.02;56.93
25526;BME280;13424;48.424;11.258;2024-03-23T06:30:24;94571.44;;;16.19;57.24
25526;BME280;13424;48.424;11.258;2024-03-23T06:32:52;94561.69;;;16.23;56.79
25526;BME280;13424;48.424;11.258;2024-03-23T06:35:19;94562.28;;;16.75;56.72
25526;BME280;13424;48.424;11.258;2024-03-23T06:37:45;94564.34;;;16.51;57.57
25526;BME280;13424;48.424;11.258;2024-03-23T06:40:11;94562.78;;;17.22;56.61
25526;BME280;13424;48.424;11.258;2024-03-23T06:42:40;94564.94;;;17.34;56.45
25526;BME280;13424;48.424;11.258;2024-03-23T06:45:06;94554.44;;;16.87;56.01
25526;BME280;13424;48.424;11.258;2024-03-23T06:47:32;94553.00;;;17.03;55.81
25526;BME280;13424;48.424;11.258;2024-03-23T06:50:02;94552.53;;;16.52;57.69
25526;BME280;13424;48.424;11.258;2024-03-23T06:52:29;94548.50;;;16.63;57.15
25526;BME280;13424;48.424;11.258;2024-03-23T06:54:55;94556.03;;;16.88;56.85
25526;BME280;13424;48.424;11.258;2024-03-23T06:57:22;94552.53;;;16.38;57.92
25526;BME280;13424;48.424;11.258;2024-03-23T06:59:48;94560.31;;;16.12;58.89
25526;BME280;13424;48.424;11.258;2024-03-23T07:02:14;94559.69;;;15.87;58.49
25526;BME280;13424;48.424;11.258;2024-03-23T07:04:40;94558.88;;;15.87;58.99
25526;BME280;13424;48.424;11.258;2024-03-23T07:07:07;94563.88;;;15.94;59.61
25526;BME280;13424;48.424;11.258;2024-03-23T07:09:33;94569.72;;;15.68;59.81
25526;BME280;13424;48.424;11.258;2024-03-23T07:11:59;94568.13;;;15.67;60.98
25526;BME280;13424;48.424;11.258;2024-03-23T07:14:25;94566.56;;;15.47;62.07
25526;BME280;13424;48.424;11.258;2024-03-23T07:16:51;94568.13;;;15.34;61.03
25526;BME280;13424;48.424;11.258;2024-03-23T07:19:18;94574.06;;;15.31;61.41
25526;BME280;13424;48.424;11.258;2024-03-23T07:21:45;94583.03;;;15.59;61.45
25526;BME280;13424;48.424;11.258;2024-03-23T07:24:11;94582.91;;;15.51;61.66
25526;BME280;13424;48.424;11.258;2024-03-23T07:26:38;94602.81;;;15.50;63.16
25526;BME280;13424;48.424;11.258;2024-03-23T07:29:05;94597.28;;;14.90;64.66
25526;BME280;13424;48.424;11.258;2024-03-23T07:31:31;94598.38;;;14.89;65.72
25526;BME280;13424;48.424;11.258;2024-03-23T07:33:57;94605.81;;;14.92;66.77
25526;BME280;13424;48.424;11.258;2024-03-23T07:36:23;94631.22;;;14.62;68.45
25526;BME280;13424;48.424;11.258;2024-03-23T07:38:50;94688.97;;;14.01;72.92
25526;BME280;13424;48.424;11.258;2024-03-23T07:41:22;94698.88;;;12.83;76.19
25526;BME280;13424;48.424;11.258;2024-03-23T07:43:48;94723.06;;;12.47;77.28
25526;BME280;13424;48.424;11.258;2024-03-23T07:46:16;94741.28;;;12.40;78.24
25526;BME280;13424;48.424;11.258;2024-03-23T07:48:42;94737.81;;;12.29;77.48
25526;BME280;13424;48.424;11.258;2024-03-23T07:51:21;94739.66;;;12.39;77.36
25526;BME280;13424;48.424;11.258;2024-03-23T07:53:48;94737.56;;;12.16;78.44
25526;BME280;13424;48.424;11.258;2024-03-23T07:56:18;94764.56;;;12.35;77.87
25526;BME280;13424;48.424;11.258;2024-03-23T07:58:45;94772.84;;;12.28;78.57
25526;BME280;13424;48.424;11.258;2024-03-23T08:01:17;94768.28;;;12.49;77.39
25526;BME280;13424;48.424;11.258;2024-03-23T08:03:45;94765.91;;;12.07;78.38
25526;BME280;13424;48.424;11.258;2024-03-23T08:06:17;94773.63;;;11.57;80.24
25526;BME280;13424;48.424;11.258;2024-03-23T08:08:47;94783.53;;;12.23;78.28
25526;BME280;13424;48.424;11.258;2024-03-23T08:11:14;94785.16;;;11.83;79.66
25526;BME280;13424;48.424;11.258;2024-03-23T08:13:42;94803.00;;;11.47;80.57
25526;BME280;13424;48.424;11.258;2024-03-23T08:16:10;94804.06;;;11.51;79.61
25526;BME280;13424;48.424;11.258;2024-03-23T08:18:37;94808.59;;;11.45;81.13
25526;BME280;13424;48.424;11.258;2024-03-23T08:21:06;94817.91;;;11.33;81.29
25526;BME280;13424;48.424;11.258;2024-03-23T08:23:34;94814.78;;;11.66;80.38
25526;BME280;13424;48.424;11.258;2024-03-23T08:26:10;94820.91;;;11.57;79.83
25526;BME280;13424;48.424;11.258;2024-03-23T08:28:37;94814.56;;;11.83;79.07
25526;BME280;13424;48.424;11.258;2024-03-23T08:31:12;94824.34;;;11.52;79.22
25526;BME280;13424;48.424;11.258;2024-03-23T08:33:39;94825.44;;;11.46;78.99
25526;BME280;13424;48.424;11.258;2024-03-23T08:36:07;94835.84;;;11.58;78.32
25526;BME280;13424;48.424;11.258;2024-03-23T08:38:34;94822.59;;;12.09;77.98
25526;BME280;13424;48.424;11.258;2024-03-23T08:41:04;94819.91;;;11.98;78.21
25526;BME280;13424;48.424;11.258;2024-03-23T08:43:36;94817.72;;;11.65;77.95
25526;BME280;13424;48.424;11.258;2024-03-23T08:48:45;94832.19;;;11.84;77.33
25526;BME280;13424;48.424;11.258;2024-03-23T08:51:14;94840.66;;;11.56;78.25
25526;BME280;13424;48.424;11.258;2024-03-23T08:53:41;94836.69;;;11.73;76.71
25526;BME280;13424;48.424;11.258;2024-03-23T08:56:08;94830.09;;;12.17;76.38
25526;BME280;13424;48.424;11.258;2024-03-23T08:58:37;94836.47;;;12.51;75.87
25526;BME280;13424;48.424;11.258;2024-03-23T09:01:12;94850.94;;;12.20;76.12
25526;BME280;13424;48.424;11.258;2024-03-23T09:03:39;94846.13;;;12.17;74.75
25526;BME280;13424;48.424;11.258;2024-03-23T09:06:14;94852.00;;;12.34;75.43
25526;BME280;13424;48.424;11.258;2024-03-23T09:08:40;94853.84;;;12.59;74.51
25526;BME280;13424;48.424;11.258;2024-03-23T09:11:12;94863.75;;;12.48;74.75
25526;BME280;13424;48.424;11.258;2024-03-23T09:13:39;94872.59;;;12.34;75.13
25526;BME280;13424;48.424;11.258;2024-03-23T09:16:06;94874.97;;;11.99;76.53
25526;BME280;13424;48.424;11.258;2024-03-23T09:18:34;94880.75;;;11.71;76.15
25526;BME280;13424;48.424;11.258;2024-03-23T09:21:06;94880.84;;;12.01;74.62
25526;BME280;13424;48.424;11.258;2024-03-23T09:23:39;94884.47;;;11.65;75.19
25526;BME280;13424;48.424;11.258;2024-03-23T09:26:05;94888.31;;;11.99;75.04
25526;BME280;13424;48.424;11.258;2024-03-23T09:28:33;94891.97;;;11.68;75.56
25526;BME280;13424;48.424;11.258;2024-03-23T09:31:04;94890.13;;;11.73;75.09
25526;BME280;13424;48.424;11.258;2024-03-23T09:33:34;94892.91;;;11.31;75.03
25526;BME280;13424;48.424;11.258;2024-03-23T09:36:05;94907.00;;;11.22;73.89
25526;BME280;13424;48.424;11.258;2024-03-23T09:38:31;94903.25;;;11.80;73.54
25526;BME280;13424;48.424;11.258;2024-03-23T09:40:58;94894.06;;;11.56;73.31
25526;BME280;13424;48.424;11.258;2024-03-23T09:43:25;94909.31;;;11.65;72.33
25526;BME280;13424;48.424;11.258;2024-03-23T09:45:52;94910.97;;;11.09;70.56
25526;BME280;13424;48.424;11.258;2024-03-23T09:48:19;94895.13;;;10.97;71.04
25526;BME280;13424;48.424;11.258;2024-03-23T09:50:45;94909.94;;;11.20;69.69
25526;BME280;13424;48.424;11.258;2024-03-23T09:53:14;94914.13;;;11.68;69.49
25526;BME280;13424;48.424;11.258;2024-03-23T09:55:43;94931.25;;;11.10;69.99
25526;BME280;13424;48.424;11.258;2024-03-23T09:58:15;94914.75;;;11.18;69.96
25526;BME280;13424;48.424;11.258;2024-03-23T10:00:41;94939.78;;;11.07;70.78
25526;BME280;13424;48.424;11.258;2024-03-23T10:03:07;94927.06;;;11.29;69.00
25526;BME280;13424;48.424;11.258;2024-03-23T10:05:34;94944.63;;;11.15;69.13
25526;BME280;13424;48.424;11.258;2024-03-23T10:10:42;94952.69;;;11.25;70.58
25526;BME280;13424;48.424;11.258;2024-03-23T10:13:08;94943.59;;;11.26;70.77
25526;BME280;13424;48.424;11.258;2024-03-23T10:15:36;94948.06;;;10.73;69.67
25526;BME280;13424;48.424;11.258;2024-03-23T10:18:20;94950.84;;;11.31;68.54
25526;BME280;13424;48.424;11.258;2024-03-23T10:21:07;94941.84;;;11.52;67.72
25526;BME280;13424;48.424;11.258;2024-03-23T10:23:41;94951.09;;;11.87;68.00
25526;BME280;13424;48.424;11.258;2024-03-23T10:26:25;94955.16;;;12.05;67.17
25526;BME280;13424;48.424;11.258;2024-03-23T10:29:00;94951.72;;;11.52;67.77
25526;BME280;13424;48.424;11.258;2024-03-23T10:31:37;94967.22;;;12.22;68.02
25526;BME280;13424;48.424;11.258;2024-03-23T10:34:04;94965.97;;;11.72;67.75
25526;BME280;13424;48.424;11.258;2024-03-23T10:36:30;94967.13;;;11.92;67.28
25526;BME280;13424;48.424;11.258;2024-03-23T10:38:56;94973.59;;;11.43;67.69
25526;BME280;13424;48.424;11.258;2024-03-23T10:41:28;94964.72;;;11.80;66.87
25526;BME280;13424;48.424;11.258;2024-03-23T10:43:58;94973.09;;;11.46;67.56
25526;BME280;13424;48.424;11.258;2024-03-23T10:46:27;94970.50;;;11.14;69.10
25526;BME280;13424;48.424;11.258;2024-03-23T10:48:53;94979.81;;;11.59;68.93
25526;BME280;13424;48.424;11.258;2024-03-23T10:51:22;94998.41;;;11.91;68.55
25526;BME280;13424;48.424;11.258;2024-03-23T10:53:48;94987.69;;;11.34;69.44
25526;BME280;13424;48.424;11.258;2024-03-23T10:56:15;94997.63;;;11.43;68.42
25526;BME280;13424;48.424;11.258;2024-03-23T10:58:46;95015.13;;;11.24;67.84
25526;BME280;13424;48.424;11.258;2024-03-23T11:01:14;95008.38;;;12.21;65.69
25526;BME280;13424;48.424;11.258;2024-03-23T11:03:47;95023.31;;;11.12;65.04
25526;BME280;13424;48.424;11.258;2024-03-23T11:06:39;95028.06;;;11.42;65.39
25526;BME280;13424;48.424;11.258;2024-03-23T11:09:42;95052.91;;;11.85;64.20
25526;BME280;13424;48.424;11.258;2024-03-23T11:15:13;95036.19;;;11.68;64.05
25526;BME280;13424;48.424;11.258;2024-03-23T11:17:40;95053.06;;;12.36;64.99
25526;BME280;13424;48.424;11.258;2024-03-23T11:20:07;95044.06;;;13.19;62.05
25526;BME280;13424;48.424;11.258;2024-03-23T11:25:23;95041.69;;;11.88;58.63
25526;BME280;13424;48.424;11.258;2024-03-23T11:28:11;95048.22;;;12.23;58.46
25526;BME280;13424;48.424;11.258;2024-03-23T11:30:38;95036.00;;;12.63;59.70
25526;BME280;13424;48.424;11.258;2024-03-23T11:33:04;95046.94;;;12.36;57.50
25526;BME280;13424;48.424;11.258;2024-03-23T11:35:39;95051.00;;;12.58;58.85
25526;BME280;13424;48.424;11.258;2024-03-23T11:38:17;95046.44;;;12.54;59.22
25526;BME280;13424;48.424;11.258;2024-03-23T11:40:49;95049.63;;;12.41;58.88
25526;BME280;13424;48.424;11.258;2024-03-23T11:43:18;95040.34;;;13.04;57.77
25526;BME280;13424;48.424;11.258;2024-03-23T11:45:50;95024.25;;;13.40;58.21
25526;BME280;13424;48.424;11.258;2024-03-23T11:48:23;94994.75;;;13.50;56.45
25526;BME280;13424;48.424;11.258;2024-03-23T11:50:57;95006.06;;;12.81;57.29
25526;BME280;13424;48.424;11.258;2024-03-23T11:53:25;95026.09;;;12.53;57.75
25526;BME280;13424;48.424;11.258;2024-03-23T11:55:59;95028.00;;;12.57;59.35
25526;BME280;13424;48.424;11.258;2024-03-23T11:58:29;95038.16;;;12.71;59.36
25526;BME280;13424;48.424;11.258;2024-03-23T12:01:03;95033.69;;;11.93;61.57
25526;BME280;13424;48.424;11.258;2024-03-23T12:03:31;95031.44;;;12.43;59.74
25526;BME280;13424;48.424;11.258;2024-03-23T12:06:04;95051.78;;;12.59;58.50
25526;BME280;13424;48.424;11.258;2024-03-23T12:08:32;95041.94;;;12.90;57.98
25526;BME280;13424;48.424;11.258;2024-03-23T12:11:13;95035.66;;;12.18;59.92
25526;BME280;13424;48.424;11.258;2024-03-23T12:13:42;95028.25;;;12.56;59.49
25526;BME280;13424;48.424;11.258;2024-03-23T12:16:20;95025.25;;;12.32;59.43
25526;BME280;13424;48.424;11.258;2024-03-23T12:18:50;95021.78;;;12.32;58.26
25526;BME280;13424;48.424;11.258;2024-03-23T12:21:20;95039.81;;;12.97;58.24
25526;BME280;13424;48.424;11.258;2024-03-23T12:23:49;95036.84;;;12.83;58.89
25526;BME280;13424;48.424;11.258;2024-03-23T12:26:16;95033.81;;;12.39;58.85
25526;BME280;13424;48.424;11.258;2024-03-23T12:28:43;95035.25;;;12.72;58.56
25526;BME280;13424;48.424;11.258;2024-03-23T12:31:10;95030.59;;;12.32;57.54
25526;BME280;13424;48.424;11.258;2024-03-23T12:33:36;95033.34;;;12.68;58.89
25526;BME280;13424;48.424;11.258;2024-03-23T12:36:03;95015.06;;;12.09;58.41
25526;BME280;13424;48.424;11.258;2024-03-23T12:38:30;95031.50;;;13.45;57.87
25526;BME280;13424;48.424;11.258;2024-03-23T12:40:59;95028.50;;;12.54;56.16
25526;BME280;13424;48.424;11.258;2024-03-23T12:43:26;95026.41;;;13.07;57.93
25526;BME280;13424;48.424;11.258;2024-03-23T12:45:52;95016.38;;;13.84;56.07
25526;BME280;13424;48.424;11.258;2024-03-23T12:48:20;95019.44;;;13.37;57.10
25526;BME280;13424;48.424;11.258;2024-03-23T12:50:46;95017.03;;;13.35;56.41
25526;BME280;13424;48.424;11.258;2024-03-23T12:53:12;95013.56;;;13.04;57.20
25526;BME280;13424;48.424;11.258;2024-03-23T12:55:38;95010.34;;;13.38;58.68
25526;BME280;13424;48.424;11.258;2024-03-23T12:58:04;95008.13;;;12.28;57.11
25526;BME280;13424;48.424;11.258;2024-03-23T13:00:30;95009.16;;;12.12;56.67
25526;BME280;13424;48.424;11.258;2024-03-23T13:02:56;95004.44;;;12.49;55.22
25526;BME280;13424;48.424;11.258;2024-03-23T13:05:22;95004.41;;;12.29;58.11
25526;BME280;13424;48.424;11.258;2024-03-23T13:07:48;95003.88;;;12.37;57.07
25526;BME280;13424;48.424;11.258;2024-03-23T13:10:14;94999.31;;;12.38;57.33
25526;BME280;13424;48.424;11.258;2024-03-23T13:12:41;95005.22;;;12.45;57.47
25526;BME280;13424;48.424;11.258;2024-03-23T13:15:09;94997.19;;;12.35;56.54
25526;BME280;13424;48.424;11.258;2024-03-23T13:17:35;95004.84;;;11.95;58.65
25526;BME280;13424;48.424;11.258;2024-03-23T13:20:01;95004.94;;;12.36;58.30
25526;BME280;13424;48.424;11.258;2024-03-23T13:22:27;95007.38;;;11.70;59.79
25526;BME280;13424;48.424;11.258;2024-03-23T13:24:55;95027.69;;;11.76;61.20
25526;BME280;13424;48.424;11.258;2024-03-23T13:27:21;95043.16;;;10.89;62.58
25526;BME280;13424;48.424;11.258;2024-03-23T13:29:47;95059.16;;;10.30;64.84
25526;BME280;13424;48.424;11.258;2024-03-23T13:32:13;95067.94;;;9.65;67.50
25526;BME280;13424;48.424;11.258;2024-03-23T13:34:39;95074.44;;;9.36;68.99
25526;BME280;13424;48.424;11.258;2024-03-23T13:37:08;95065.72;;;9.23;69.96
25526;BME280;13424;48.424;11.258;2024-03-23T13:39:35;95052.78;;;9.10;69.94
25526;BME280;13424;48.424;11.258;2024-03-23T13:42:01;95041.28;;;10.09;68.34
25526;BME280;13424;48.424;11.258;2024-03-23T13:44:27;95047.59;;;10.03;68.53
25526;BME280;13424;48.424;11.258;2024-03-23T13:46:53;95041.94;;;9.72;68.93
25526;BME280;13424;48.424;11.258;2024-03-23T13:49:29;95036.72;;;9.83;68.73
25526;BME280;13424;48.424;11.258;2024-03-23T13:51:57;95037.31;;;10.33;67.07
25526;BME280;13424;48.424;11.258;2024-03-23T13:54:25;95050.34;;;10.08;67.24
25526;BME280;13424;48.424;11.258;2024-03-23T13:56:52;95058.56;;;9.24;68.53
25526;BME280;13424;48.424;11.258;2024-03-23T13:59:18;95037.97;;;10.46;65.68